Hilltop Holdings Inc (HTH) Latest Bloomsberg Price


Mffais Ranking #2103 Overall / #226 Industry
Industry: Banks

Number of Companies: 103 (Ranking #1616 Overall/#78 Industry)
Inflow: $ 17,435 (K) (Ranking #1803 Overall/#92 Industry)
Outflow: $ -40,735 (K)
Mffais Flow: $ -23,300 (K) (Ranking #2103 Overall/#226 Industry)


Receive a FREE weekly executive review of stocks moving into the top 10, taking the top industy spot or moving up within their industry. Sent directly to your Inbox every Saturday. Sign up today and get last week's review immediately sent to you.

We value and respect your privacy. Please read our Terms and Conditions which states our firm commitment to your privacy. Your email address will not be shared with a third party, nor will it be sold or used for purposes other than subscription for the weekly review.

Owner CPOR Shares Action Qty Chg Invested (K) Total Current Value (K)
Dimensional Fund Advisors Lp 2016-09-30 5,363,068 Added More 244,707 $ 5,381 $ 117,933
Maltese Capital Management Llc 2016-09-30 212,000 Added More 125,800 $ 2,766 $ 4,661
Seawolf Capital Llc 2016-09-30 62,649 New Holding 62,649 $ 1,377 $ 1,377
Bogle Investment Management L P De 2016-09-30 59,869 New Holding 59,869 $ 1,316 $ 1,316
Hodges Capital Management Inc 2016-09-30 1,476,161 Added More 48,586 $ 1,068 $ 32,460
Sterling Capital Management Llc 2016-09-30 40,546 New Holding 40,546 $ 891 $ 891
New York State Common Retirement Fund 2016-09-30 107,109 Added More 28,609 $ 629 $ 2,355
Northern Trust Corp 2016-09-30 895,036 Added More 25,959 $ 570 $ 19,681
Raymond James Associates 2016-09-30 34,807 Added More 22,386 $ 492 $ 765
Alpenglow Capital Lp 2016-09-30 22,200 New Holding 22,200 $ 488 $ 488
Stevens Capital Management Lp 2016-09-30 19,334 New Holding 19,334 $ 425 $ 425
Highbridge Capital Management Llc 2016-09-30 18,989 New Holding 18,989 $ 417 $ 417
Parametric Portfolio Associates Llc 2016-09-30 143,369 Added More 14,154 $ 311 $ 3,152
Gsa Capital Partners Llp 2016-09-30 12,868 New Holding 12,868 $ 282 $ 282
Nationwide Fund Advisors 2016-09-30 121,976 Added More 10,295 $ 226 $ 2,682
Frontier Investment Mgmt Co 2016-09-30 9,376 New Holding 9,376 $ 206 $ 206
Sg Americas Securities Llc 2016-09-30 9,180 New Holding 9,180 $ 201 $ 201
Hillcrest Asset Management Llc 2016-09-30 346,956 Added More 4,614 $ 101 $ 7,629
Walleye Trading Llc 2016-09-30 40,800 Added More 4,460 $ 98 $ 897
Burgundy Asset Management Ltd 2016-09-30 1,731,949 Added More 3,126 $ 68 $ 38,085
California State Teachers Retirement System 2016-09-30 158,858 Added More 1,500 $ 32 $ 3,493
Rhumbline Advisers 2016-09-30 98,450 Added More 1,390 $ 30 $ 2,164
Blackrock Investment Management Llc 2016-09-30 310,540 Added More 1,364 $ 29 $ 6,828
Zurcher Kantonalbank Zurich Cantonalbank 2016-09-30 1,888 Added More 312 $ 6 $ 41
Scout Investments Inc 2016-09-30 119,200 Added More 300 $ 6 $ 2,621
Rothschild Asset Management Inc 2016-09-30 80,501 Added More 230 $ 5 $ 1,770
American International Group Inc 2016-09-30 43,266 Added More 66 $ 1 $ 951
Cls Investments Llc 2016-09-30 2 New Holding 2 $ 0 $ 0
Oak Hill Capital Management Llc 2016-09-30 2,175,404 No Change 0 $ 0 $ 47,837
King Luther Capital Management Corp 2016-09-30 12,468 No Change 0 $ 0 $ 274
First Manhattan Co 2016-09-30 17,500 No Change 0 $ 0 $ 384
Ray Gerald L Associates Ltd 2016-09-30 15,230 No Change 0 $ 0 $ 334
Hsbc Holdings Plc 2016-09-30 10,000 No Change 0 $ 0 $ 219
Panagora Asset Management Inc 2016-09-30 2,497 No Change 0 $ 0 $ 54
Blair William Co Il 2016-09-30 10,001 No Change 0 $ 0 $ 219
Mutual Of America Capital Management Llc 2016-09-30 2,025 No Change 0 $ 0 $ 44
Nisa Investment Advisors Llc 2016-09-30 1,100 No Change 0 $ 0 $ 24
United Services Automobile Association 2016-09-30 488,000 No Change 0 $ 0 $ 10,731
Banc Funds Co Llc 2016-09-30 227,532 No Change 0 $ 0 $ 5,003
Atwood Palmer Inc 2016-09-30 1,000 No Change 0 $ 0 $ 21
Dreman Value Management L L C 2016-09-30 663 No Change 0 $ 0 $ 14
Northwestern Mutual Wealth Management Co 2016-09-30 4,060 No Change 0 $ 0 $ 89
Bragg Financial Advisors Inc 2016-09-30 175,023 No Change 0 $ 0 $ 3,848
Assetmark Inc 2016-09-30 7,465 No Change 0 $ 0 $ 164
Msi Financial Services Inc 2016-09-30 11 No Change 0 $ 0 $ 0
Ls Investment Advisors Llc 2016-09-30 73,082 No Change 0 $ 0 $ 1,607
Hightower Advisors Llc 2016-09-30 11,864 No Change 0 $ 0 $ 260
Qs Investors Llc 2016-09-30 240,283 No Change 0 $ 0 $ 5,283
Wfg Advisors Lp 2016-09-30 1 No Change 0 $ 0 $ 0
Creative Planning 2016-09-30 56 No Change 0 $ 0 $ 1
Financial Management Professionals Inc 2016-09-30 2,430 No Change 0 $ 0 $ 53
Ftb Advisors Inc 2016-09-30 118 No Change 0 $ 0 $ 2
Consector Capital Lp 2016-09-30 40,000 No Change 0 $ 0 $ 879
Belmont Global Advisors Inc 2016-09-30 11,000 No Change 0 $ 0 $ 241
Context Bh Capital Management Lp 2016-09-30 105,922 No Change 0 $ 0 $ 2,329
First Personal Financial Services 2016-09-30 485 No Change 0 $ 0 $ 10
Ifp Advisors Inc 2016-09-30 51 No Change 0 $ 0 $ 1
Advisor Group Inc 2016-09-30 9 No Change 0 $ 0 $ 0
Sei Investments Co 2016-09-30 1 Sold Some -2 $ -0 $ 0
Blackrock Inc 2016-09-30 21,353 Sold Some -8 $ -0 $ 469
Kistler-Tiffany Companies Llc 2016-09-30 0 Sold All -15 $ -0 $ 0
Stifel Financial Corp 2016-09-30 12,170 Sold Some -100 $ -2 $ 267
Eqis Capital Management Inc 2016-09-30 9,829 Sold Some -411 $ -9 $ 216
Pnc Financial Services Group Inc 2016-09-30 0 Sold All -444 $ -9 $ 0
Legal General Group Plc 2016-09-30 20,195 Sold Some -478 $ -10 $ 444
Regions Financial Corp 2016-09-30 67,933 Sold Some -624 $ -13 $ 1,493
Ladenburg Thalmann Financial Services Inc 2016-09-30 50,573 Sold Some -657 $ -14 $ 1,112
Hilltop Holdings Inc 2016-09-30 11,379 Sold Some -1,436 $ -31 $ 250
Horizon Kinetics Llc 2016-09-30 18,586 Sold Some -1,678 $ -36 $ 408
Strs Ohio 2016-09-30 48,800 Sold Some -1,800 $ -39 $ 1,073
M T Bank Corp 2016-09-30 15,496 Sold Some -1,880 $ -41 $ 340
Tower Research Capital Llc Trc 2016-09-30 0 Sold All -2,533 $ -55 $ 0
Guggenheim Capital Llc 2016-09-30 13,447 Sold Some -2,911 $ -64 $ 295
Cutler Group Lp 2016-09-30 200 Sold Some -4,000 $ -87 $ 4
Brandywine Global Investment Management Llc 2016-09-30 276,338 Sold Some -4,197 $ -92 $ 6,076
Swiss National Bank 2016-09-30 128,100 Sold Some -4,300 $ -94 $ 2,816
Us Bancorp De 2016-09-30 45,693 Sold Some -4,552 $ -100 $ 1,004
United Capital Financial Advisers Llc 2016-09-30 58,357 Sold Some -6,035 $ -132 $ 1,283
Envestnet Asset Management Inc 2016-09-30 57,490 Sold Some -6,796 $ -149 $ 1,264
Simplex Trading Llc 2016-09-30 0 Sold All -7,486 $ -164 $ 0
Kennedy Capital Management Inc 2016-09-30 518,734 Sold Some -9,541 $ -209 $ 11,406
Proshare Advisors Llc 2016-09-30 0 Sold All -9,805 $ -215 $ 0
Cfo4life L P 2016-09-30 0 Sold All -10,000 $ -219 $ 0
Kcg Holdings Inc 2016-09-30 0 Sold All -10,047 $ -220 $ 0
Teacher Retirement System Of Texas 2016-09-30 0 Sold All -10,974 $ -241 $ 0
Jane Street Group Llc 2016-09-30 0 Sold All -10,985 $ -241 $ 0
Cornerstone Capital Management Holdings Llc 2016-09-30 0 Sold All -18,349 $ -403 $ 0
Teton Advisors Inc 2016-09-30 58,200 Sold Some -21,800 $ -479 $ 1,279
Deere Co 2016-09-30 0 Sold All -23,278 $ -511 $ 0
Cornercap Investment Counsel Inc 2016-09-30 0 Sold All -28,305 $ -622 $ 0
Clinton Group Inc 2016-09-30 0 Sold All -28,742 $ -632 $ 0
Gamco Investors Inc Et Al 2016-09-30 200,150 Sold Some -30,000 $ -659 $ 4,401
Broadview Advisors Llc 2016-09-30 432,684 Sold Some -35,200 $ -774 $ 9,514
Spot Trading L L C 2016-09-30 0 Sold All -40,800 $ -897 $ 0
Teachers Advisors Inc 2016-09-30 2,453,956 Sold Some -56,647 $ -1,245 $ 53,962
Gabelli Funds Llc 2016-09-30 250,000 Sold Some -85,000 $ -1,869 $ 5,497
Peak6 Investments L P 2016-09-30 0 Sold All -99,700 $ -2,192 $ 0
Emerald Acquisition Ltd 2016-09-30 48,638 Sold Some -133,447 $ -2,934 $ 1,069
Gotham Asset Management Llc 2016-09-30 0 Sold All -148,175 $ -3,258 $ 0
Keeley Asset Management Corp 2016-09-30 1,896,363 Sold Some -211,440 $ -4,649 $ 41,701
Jacobs Asset Management Llc 2016-09-30 340,288 Sold Some -223,409 $ -4,912 $ 7,482
Cambiar Investors Llc 2016-09-30 1,042,869 Sold Some -245,081 $ -5,389 $ 22,932
Ratan Capital Management Lp 2016-09-30 287,487 Sold Some -309,397 $ -6,803 $ 6,321